sensor_id;sensor_type;location;lat;lon;timestamp;pressure;altitude;pressure_sealevel;temperature;humidity
48563;BME280;34981;49.104;11.396;2023-04-25T00:01:56;98871.78;;;6.81;100.00
48563;BME280;34981;49.104;11.396;2023-04-25T00:04:24;98869.94;;;6.81;100.00
48563;BME280;34981;49.104;11.396;2023-04-25T00:06:55;98872.63;;;6.81;100.00
48563;BME280;34981;49.104;11.396;2023-04-25T00:09:22;98875.28;;;6.81;100.00
48563;BME280;34981;49.104;11.396;2023-04-25T00:11:49;98861.78;;;6.75;100.00
48563;BME280;34981;49.104;11.396;2023-04-25T00:14:16;98872.47;;;6.75;100.00
48563;BME280;34981;49.104;11.396;2023-04-25T00:16:43;98865.00;;;6.70;100.00
48563;BME280;34981;49.104;11.396;2023-04-25T00:19:11;98870.69;;;6.67;100.00
48563;BME280;34981;49.104;11.396;2023-04-25T00:21:38;98883.88;;;6.69;100.00
48563;BME280;34981;49.104;11.396;2023-04-25T00:24:07;98875.19;;;6.67;100.00
48563;BME280;34981;49.104;11.396;2023-04-25T00:26:34;98867.19;;;6.58;100.00
48563;BME280;34981;49.104;11.396;2023-04-25T00:29:02;98861.06;;;6.50;100.00
48563;BME280;34981;49.104;11.396;2023-04-25T00:31:29;98889.41;;;6.59;100.00
48563;BME280;34981;49.104;11.396;2023-04-25T00:33:57;98880.75;;;6.57;100.00
48563;BME280;34981;49.104;11.396;2023-04-25T00:36:24;98877.75;;;6.52;100.00
48563;BME280;34981;49.104;11.396;2023-04-25T00:38:53;98881.25;;;6.52;100.00
48563;BME280;34981;49.104;11.396;2023-04-25T00:41:20;98877.75;;;6.52;100.00
48563;BME280;34981;49.104;11.396;2023-04-25T00:43:47;98874.63;;;6.40;100.00
48563;BME280;34981;49.104;11.396;2023-04-25T00:46:15;98872.94;;;6.39;100.00
48563;BME280;34981;49.104;11.396;2023-04-25T00:48:42;98882.13;;;6.45;100.00
48563;BME280;34981;49.104;11.396;2023-04-25T00:51:09;98881.78;;;6.48;100.00
48563;BME280;34981;49.104;11.396;2023-04-25T00:53:40;98873.25;;;6.44;100.00
48563;BME280;34981;49.104;11.396;2023-04-25T00:56:07;98880.44;;;6.44;100.00
48563;BME280;34981;49.104;11.396;2023-04-25T00:58:34;98865.47;;;6.35;100.00
48563;BME280;34981;49.104;11.396;2023-04-25T01:01:01;98855.16;;;6.15;100.00
48563;BME280;34981;49.104;11.396;2023-04-25T01:03:30;98870.84;;;6.18;100.00
48563;BME280;34981;49.104;11.396;2023-04-25T01:05:59;98878.00;;;6.26;100.00
48563;BME280;34981;49.104;11.396;2023-04-25T01:08:27;98885.03;;;6.27;100.00
48563;BME280;34981;49.104;11.396;2023-04-25T01:10:54;98878.16;;;6.24;100.00
48563;BME280;34981;49.104;11.396;2023-04-25T01:13:21;98877.16;;;6.25;100.00
48563;BME280;34981;49.104;11.396;2023-04-25T01:15:49;98875.50;;;6.24;100.00
48563;BME280;34981;49.104;11.396;2023-04-25T01:18:17;98873.81;;;6.23;100.00
48563;BME280;34981;49.104;11.396;2023-04-25T01:20:45;98879.69;;;6.19;100.00
48563;BME280;34981;49.104;11.396;2023-04-25T01:23:13;98863.03;;;6.01;100.00
48563;BME280;34981;49.104;11.396;2023-04-25T01:25:40;98867.69;;;6.07;100.00
48563;BME280;34981;49.104;11.396;2023-04-25T01:28:08;98876.34;;;6.09;100.00
48563;BME280;34981;49.104;11.396;2023-04-25T01:30:35;98879.19;;;6.07;100.00
48563;BME280;34981;49.104;11.396;2023-04-25T01:33:02;98880.22;;;6.06;100.00
48563;BME280;34981;49.104;11.396;2023-04-25T01:35:31;98879.56;;;6.04;100.00
48563;BME280;34981;49.104;11.396;2023-04-25T01:37:58;98867.03;;;5.97;100.00
48563;BME280;34981;49.104;11.396;2023-04-25T01:40:26;98868.19;;;5.94;100.00
48563;BME280;34981;49.104;11.396;2023-04-25T01:42:54;98880.22;;;5.98;100.00
48563;BME280;34981;49.104;11.396;2023-04-25T01:45:21;98883.06;;;5.97;100.00
48563;BME280;34981;49.104;11.396;2023-04-25T01:47:50;98879.88;;;5.93;100.00
48563;BME280;34981;49.104;11.396;2023-04-25T01:50:18;98863.88;;;5.61;100.00
48563;BME280;34981;49.104;11.396;2023-04-25T01:52:45;98877.19;;;5.44;100.00
48563;BME280;34981;49.104;11.396;2023-04-25T01:55:13;98901.91;;;5.55;100.00
48563;BME280;34981;49.104;11.396;2023-04-25T01:57:50;98908.56;;;5.67;100.00
48563;BME280;34981;49.104;11.396;2023-04-25T02:00:22;98914.88;;;5.58;100.00
48563;BME280;34981;49.104;11.396;2023-04-25T02:02:49;98914.72;;;5.59;100.00
48563;BME280;34981;49.104;11.396;2023-04-25T02:05:26;98922.91;;;5.66;100.00
48563;BME280;34981;49.104;11.396;2023-04-25T02:07:53;98928.25;;;5.66;100.00
48563;BME280;34981;49.104;11.396;2023-04-25T02:10:20;98920.56;;;5.55;100.00
48563;BME280;34981;49.104;11.396;2023-04-25T02:13:00;98910.22;;;5.43;100.00
48563;BME280;34981;49.104;11.396;2023-04-25T02:15:41;98929.56;;;5.54;100.00
48563;BME280;34981;49.104;11.396;2023-04-25T02:18:19;98933.91;;;5.55;100.00
48563;BME280;34981;49.104;11.396;2023-04-25T02:20:48;98941.56;;;5.58;100.00
48563;BME280;34981;49.104;11.396;2023-04-25T02:23:15;98945.44;;;5.55;100.00
48563;BME280;34981;49.104;11.396;2023-04-25T02:25:42;98951.56;;;5.56;100.00
48563;BME280;34981;49.104;11.396;2023-04-25T02:28:09;98955.59;;;5.60;100.00
48563;BME280;34981;49.104;11.396;2023-04-25T02:30:37;98960.94;;;5.60;100.00
48563;BME280;34981;49.104;11.396;2023-04-25T02:33:04;98961.09;;;5.58;100.00
48563;BME280;34981;49.104;11.396;2023-04-25T02:35:32;98963.44;;;5.61;100.00
48563;BME280;34981;49.104;11.396;2023-04-25T02:37:59;98962.59;;;5.61;100.00
48563;BME280;34981;49.104;11.396;2023-04-25T02:40:26;98972.63;;;5.67;100.00
48563;BME280;34981;49.104;11.396;2023-04-25T02:42:53;98967.94;;;5.61;100.00
48563;BME280;34981;49.104;11.396;2023-04-25T02:45:21;98961.59;;;5.54;100.00
48563;BME280;34981;49.104;11.396;2023-04-25T02:47:49;98969.44;;;5.55;100.00
48563;BME280;34981;49.104;11.396;2023-04-25T02:50:18;98970.59;;;5.53;100.00
48563;BME280;34981;49.104;11.396;2023-04-25T02:52:45;98977.13;;;5.66;100.00
48563;BME280;34981;49.104;11.396;2023-04-25T03:01:36;98927.41;;;5.57;100.00
48563;BME280;34981;49.104;11.396;2023-04-25T03:04:03;98975.28;;;5.59;100.00
48563;BME280;34981;49.104;11.396;2023-04-25T03:06:30;98997.16;;;5.62;100.00
48563;BME280;34981;49.104;11.396;2023-04-25T03:08:58;98991.94;;;5.53;100.00
48563;BME280;34981;49.104;11.396;2023-04-25T03:11:26;98999.44;;;5.57;100.00
48563;BME280;34981;49.104;11.396;2023-04-25T03:13:54;99018.50;;;5.62;100.00
48563;BME280;34981;49.104;11.396;2023-04-25T03:16:21;99013.97;;;5.63;100.00
48563;BME280;34981;49.104;11.396;2023-04-25T03:18:49;99022.66;;;5.65;100.00
48563;BME280;34981;49.104;11.396;2023-04-25T03:21:17;99029.81;;;5.64;100.00
48563;BME280;34981;49.104;11.396;2023-04-25T03:23:44;99036.97;;;5.64;100.00
48563;BME280;34981;49.104;11.396;2023-04-25T03:26:11;99030.50;;;5.66;100.00
48563;BME280;34981;49.104;11.396;2023-04-25T03:28:39;99031.66;;;5.64;100.00
48563;BME280;34981;49.104;11.396;2023-04-25T03:31:06;99030.31;;;5.60;100.00
48563;BME280;34981;49.104;11.396;2023-04-25T03:33:34;99042.66;;;5.61;100.00
48563;BME280;34981;49.104;11.396;2023-04-25T03:36:01;99043.81;;;5.58;100.00
48563;BME280;34981;49.104;11.396;2023-04-25T03:38:29;99049.00;;;5.60;100.00
48563;BME280;34981;49.104;11.396;2023-04-25T03:40:56;99041.16;;;5.58;100.00
48563;BME280;34981;49.104;11.396;2023-04-25T03:43:31;99029.28;;;5.53;100.00
48563;BME280;34981;49.104;11.396;2023-04-25T03:46:03;99019.59;;;5.43;100.00
48563;BME280;34981;49.104;11.396;2023-04-25T03:48:30;99036.59;;;5.42;100.00
48563;BME280;34981;49.104;11.396;2023-04-25T03:50:58;99044.63;;;5.51;100.00
48563;BME280;34981;49.104;11.396;2023-04-25T03:53:25;99055.63;;;5.56;100.00
48563;BME280;34981;49.104;11.396;2023-04-25T03:56:28;99022.47;;;5.58;100.00
48563;BME280;34981;49.104;11.396;2023-04-25T03:59:01;99036.16;;;5.55;100.00
48563;BME280;34981;49.104;11.396;2023-04-25T04:01:30;99044.97;;;5.56;100.00
48563;BME280;34981;49.104;11.396;2023-04-25T04:03:57;99048.66;;;5.55;100.00
48563;BME280;34981;49.104;11.396;2023-04-25T04:06:26;99052.66;;;5.59;100.00
48563;BME280;34981;49.104;11.396;2023-04-25T04:09:01;99045.63;;;5.49;100.00
48563;BME280;34981;49.104;11.396;2023-04-25T04:11:30;99050.31;;;5.47;100.00
48563;BME280;34981;49.104;11.396;2023-04-25T04:13:59;99057.97;;;5.51;100.00
48563;BME280;34981;49.104;11.396;2023-04-25T04:16:27;99063.16;;;5.52;100.00
48563;BME280;34981;49.104;11.396;2023-04-25T04:18:54;99061.31;;;5.53;100.00
48563;BME280;34981;49.104;11.396;2023-04-25T04:21:21;99078.66;;;5.57;100.00
48563;BME280;34981;49.104;11.396;2023-04-25T04:23:48;99065.94;;;5.42;100.00
48563;BME280;34981;49.104;11.396;2023-04-25T04:26:16;99077.97;;;5.46;100.00
48563;BME280;34981;49.104;11.396;2023-04-25T04:28:57;99076.63;;;5.51;100.00
48563;BME280;34981;49.104;11.396;2023-04-25T04:31:50;99063.13;;;5.44;100.00
48563;BME280;34981;49.104;11.396;2023-04-25T04:34:18;99091.97;;;5.48;100.00
48563;BME280;34981;49.104;11.396;2023-04-25T04:36:45;99094.28;;;5.43;100.00
48563;BME280;34981;49.104;11.396;2023-04-25T04:39:13;99104.47;;;5.48;100.00
48563;BME280;34981;49.104;11.396;2023-04-25T04:42:02;99093.66;;;5.49;100.00
48563;BME280;34981;49.104;11.396;2023-04-25T04:45:05;99088.19;;;5.59;100.00
48563;BME280;34981;49.104;11.396;2023-04-25T04:47:49;99107.03;;;5.58;100.00
48563;BME280;34981;49.104;11.396;2023-04-25T04:50:44;99111.59;;;5.73;100.00
48563;BME280;34981;49.104;11.396;2023-04-25T04:53:24;99170.84;;;6.19;100.00
48563;BME280;34981;49.104;11.396;2023-04-25T04:56:17;99124.25;;;6.21;100.00
48563;BME280;34981;49.104;11.396;2023-04-25T04:58:51;99119.53;;;5.91;100.00
48563;BME280;34981;49.104;11.396;2023-04-25T05:01:38;99122.19;;;5.91;100.00
48563;BME280;34981;49.104;11.396;2023-04-25T05:04:28;99121.19;;;5.92;100.00
48563;BME280;34981;49.104;11.396;2023-04-25T05:07:03;99129.88;;;5.94;100.00
48563;BME280;34981;49.104;11.396;2023-04-25T05:09:44;99134.06;;;5.97;100.00
48563;BME280;34981;49.104;11.396;2023-04-25T05:12:31;99130.56;;;5.96;100.00
48563;BME280;34981;49.104;11.396;2023-04-25T05:15:11;99130.22;;;5.99;100.00
48563;BME280;34981;49.104;11.396;2023-04-25T05:17:51;99129.22;;;6.00;100.00
48563;BME280;34981;49.104;11.396;2023-04-25T05:20:40;99111.88;;;6.04;100.00
48563;BME280;34981;49.104;11.396;2023-04-25T05:23:43;99099.03;;;6.08;100.00
48563;BME280;34981;49.104;11.396;2023-04-25T05:26:29;99116.41;;;6.12;100.00
48563;BME280;34981;49.104;11.396;2023-04-25T05:29:05;99121.41;;;6.15;100.00
48563;BME280;34981;49.104;11.396;2023-04-25T05:31:59;99106.72;;;6.19;100.00
48563;BME280;34981;49.104;11.396;2023-04-25T05:34:26;99130.28;;;6.23;100.00
48563;BME280;34981;49.104;11.396;2023-04-25T05:37:00;99118.91;;;6.30;100.00
48563;BME280;34981;49.104;11.396;2023-04-25T05:39:28;99134.28;;;6.36;100.00
48563;BME280;34981;49.104;11.396;2023-04-25T05:42:14;99128.97;;;6.44;100.00
48563;BME280;34981;49.104;11.396;2023-04-25T05:45:04;99124.63;;;6.43;100.00
48563;BME280;34981;49.104;11.396;2023-04-25T05:47:47;99126.44;;;6.50;100.00
48563;BME280;34981;49.104;11.396;2023-04-25T05:50:32;99130.97;;;6.66;100.00
48563;BME280;34981;49.104;11.396;2023-04-25T05:53:20;99140.16;;;6.80;100.00
48563;BME280;34981;49.104;11.396;2023-04-25T05:55:53;99179.44;;;7.12;100.00
48563;BME280;34981;49.104;11.396;2023-04-25T05:58:26;99195.31;;;7.37;100.00
48563;BME280;34981;49.104;11.396;2023-04-25T06:00:54;99235.69;;;7.75;100.00
48563;BME280;34981;49.104;11.396;2023-04-25T06:03:21;99270.19;;;8.33;100.00
48563;BME280;34981;49.104;11.396;2023-04-25T06:05:49;99244.34;;;8.40;100.00
48563;BME280;34981;49.104;11.396;2023-04-25T06:08:17;99255.41;;;8.76;100.00
48563;BME280;34981;49.104;11.396;2023-04-25T06:10:44;99239.00;;;8.94;100.00
48563;BME280;34981;49.104;11.396;2023-04-25T06:13:11;99224.44;;;9.11;100.00
48563;BME280;34981;49.104;11.396;2023-04-25T06:15:38;99211.84;;;9.34;100.00
48563;BME280;34981;49.104;11.396;2023-04-25T06:18:06;99201.75;;;9.66;100.00
48563;BME280;34981;49.104;11.396;2023-04-25T06:20:33;99170.44;;;9.73;100.00
48563;BME280;34981;49.104;11.396;2023-04-25T06:23:01;99103.03;;;9.38;100.00
48563;BME280;34981;49.104;11.396;2023-04-25T06:25:38;99096.75;;;9.61;100.00
48563;BME280;34981;49.104;11.396;2023-04-25T06:28:05;99088.19;;;9.57;100.00
48563;BME280;34981;49.104;11.396;2023-04-25T06:30:32;99104.22;;;9.80;100.00
48563;BME280;34981;49.104;11.396;2023-04-25T06:33:05;99038.22;;;9.56;100.00
48563;BME280;34981;49.104;11.396;2023-04-25T06:35:32;99052.53;;;9.78;100.00
48563;BME280;34981;49.104;11.396;2023-04-25T06:37:59;99044.63;;;9.91;100.00
48563;BME280;34981;49.104;11.396;2023-04-25T06:40:27;99046.22;;;10.22;100.00
48563;BME280;34981;49.104;11.396;2023-04-25T06:42:55;99001.75;;;10.04;100.00
48563;BME280;34981;49.104;11.396;2023-04-25T06:45:42;98943.78;;;9.95;100.00
48563;BME280;34981;49.104;11.396;2023-04-25T06:48:12;98928.06;;;9.92;100.00
48563;BME280;34981;49.104;11.396;2023-04-25T06:50:40;98863.19;;;9.53;100.00
48563;BME280;34981;49.104;11.396;2023-04-25T06:53:07;98841.34;;;9.56;100.00
48563;BME280;34981;49.104;11.396;2023-04-25T06:55:36;98840.81;;;9.67;100.00
48563;BME280;34981;49.104;11.396;2023-04-25T06:58:21;98774.16;;;9.49;100.00
48563;BME280;34981;49.104;11.396;2023-04-25T07:01:08;98756.28;;;9.35;100.00
48563;BME280;34981;49.104;11.396;2023-04-25T07:03:36;98744.06;;;9.32;100.00
48563;BME280;34981;49.104;11.396;2023-04-25T07:06:09;98742.06;;;9.41;100.00
48563;BME280;34981;49.104;11.396;2023-04-25T07:08:36;98746.47;;;9.49;100.00
48563;BME280;34981;49.104;11.396;2023-04-25T07:11:03;98737.22;;;9.58;100.00
48563;BME280;34981;49.104;11.396;2023-04-25T07:13:31;98706.94;;;9.43;100.00
48563;BME280;34981;49.104;11.396;2023-04-25T07:15:58;98693.09;;;9.39;100.00
48563;BME280;34981;49.104;11.396;2023-04-25T07:18:28;98674.25;;;9.32;100.00
48563;BME280;34981;49.104;11.396;2023-04-25T07:20:55;98619.97;;;9.09;100.00
48563;BME280;34981;49.104;11.396;2023-04-25T07:23:22;98612.56;;;9.11;100.00
48563;BME280;34981;49.104;11.396;2023-04-25T07:25:50;98580.16;;;8.85;100.00
48563;BME280;34981;49.104;11.396;2023-04-25T07:28:20;98566.28;;;8.75;100.00
48563;BME280;34981;49.104;11.396;2023-04-25T07:30:47;98577.88;;;8.82;100.00
48563;BME280;34981;49.104;11.396;2023-04-25T07:33:14;98570.66;;;8.82;100.00
48563;BME280;34981;49.104;11.396;2023-04-25T07:35:42;98559.09;;;8.82;100.00
48563;BME280;34981;49.104;11.396;2023-04-25T07:38:10;98555.03;;;8.65;100.00
48563;BME280;34981;49.104;11.396;2023-04-25T07:40:38;98546.16;;;8.64;100.00
48563;BME280;34981;49.104;11.396;2023-04-25T07:43:07;98541.16;;;8.54;100.00
48563;BME280;34981;49.104;11.396;2023-04-25T07:45:44;98540.75;;;8.57;100.00
48563;BME280;34981;49.104;11.396;2023-04-25T07:48:16;98529.16;;;8.50;100.00
48563;BME280;34981;49.104;11.396;2023-04-25T07:50:43;98515.00;;;8.35;100.00
48563;BME280;34981;49.104;11.396;2023-04-25T07:53:10;98522.75;;;8.30;100.00
48563;BME280;34981;49.104;11.396;2023-04-25T07:55:44;98529.50;;;8.26;100.00
48563;BME280;34981;49.104;11.396;2023-04-25T07:58:15;98538.78;;;8.24;100.00
48563;BME280;34981;49.104;11.396;2023-04-25T08:00:45;98557.34;;;8.25;100.00
48563;BME280;34981;49.104;11.396;2023-04-25T08:03:38;98552.47;;;8.14;100.00
48563;BME280;34981;49.104;11.396;2023-04-25T08:06:12;98588.91;;;8.08;100.00
48563;BME280;34981;49.104;11.396;2023-04-25T08:08:49;98618.13;;;8.03;100.00
48563;BME280;34981;49.104;11.396;2023-04-25T08:11:19;98642.31;;;8.10;100.00
48563;BME280;34981;49.104;11.396;2023-04-25T08:13:46;98652.38;;;8.08;100.00
48563;BME280;34981;49.104;11.396;2023-04-25T08:16:14;98675.16;;;8.04;100.00
48563;BME280;34981;49.104;11.396;2023-04-25T08:18:41;98689.97;;;8.00;100.00
48563;BME280;34981;49.104;11.396;2023-04-25T08:21:09;98694.75;;;7.90;100.00
48563;BME280;34981;49.104;11.396;2023-04-25T08:23:38;98712.69;;;7.89;100.00
48563;BME280;34981;49.104;11.396;2023-04-25T08:26:11;98721.00;;;7.79;100.00
48563;BME280;34981;49.104;11.396;2023-04-25T08:28:39;98752.28;;;7.64;100.00
48563;BME280;34981;49.104;11.396;2023-04-25T08:31:06;98765.09;;;7.54;100.00
48563;BME280;34981;49.104;11.396;2023-04-25T08:33:43;98762.31;;;7.48;100.00
48563;BME280;34981;49.104;11.396;2023-04-25T08:36:19;98775.25;;;7.44;100.00
48563;BME280;34981;49.104;11.396;2023-04-25T08:39:06;98762.16;;;7.26;100.00
48563;BME280;34981;49.104;11.396;2023-04-25T08:41:42;98768.53;;;7.02;100.00
48563;BME280;34981;49.104;11.396;2023-04-25T08:44:10;98807.19;;;7.00;100.00
48563;BME280;34981;49.104;11.396;2023-04-25T08:46:38;98818.63;;;7.09;100.00
48563;BME280;34981;49.104;11.396;2023-04-25T08:49:14;98836.31;;;7.18;100.00
48563;BME280;34981;49.104;11.396;2023-04-25T08:51:46;98853.84;;;7.20;100.00
48563;BME280;34981;49.104;11.396;2023-04-25T08:54:16;98859.84;;;6.99;100.00
48563;BME280;34981;49.104;11.396;2023-04-25T08:56:47;98890.59;;;6.95;100.00
48563;BME280;34981;49.104;11.396;2023-04-25T08:59:14;98903.38;;;6.85;100.00
48563;BME280;34981;49.104;11.396;2023-04-25T09:01:44;98905.69;;;6.80;100.00
48563;BME280;34981;49.104;11.396;2023-04-25T09:04:12;98919.44;;;6.77;100.00
48563;BME280;34981;49.104;11.396;2023-04-25T09:06:40;98933.81;;;6.76;100.00
48563;BME280;34981;49.104;11.396;2023-04-25T09:09:08;98947.19;;;6.68;100.00
48563;BME280;34981;49.104;11.396;2023-04-25T09:11:37;98952.88;;;6.65;100.00
48563;BME280;34981;49.104;11.396;2023-04-25T09:14:18;98989.63;;;6.71;100.00
48563;BME280;34981;49.104;11.396;2023-04-25T09:17:00;98985.63;;;6.67;100.00
48563;BME280;34981;49.104;11.396;2023-04-25T09:19:47;98985.63;;;6.59;100.00
48563;BME280;34981;49.104;11.396;2023-04-25T09:22:21;99008.38;;;6.63;100.00
48563;BME280;34981;49.104;11.396;2023-04-25T09:24:49;99027.56;;;6.58;100.00
48563;BME280;34981;49.104;11.396;2023-04-25T09:27:20;99023.06;;;6.51;100.00
48563;BME280;34981;49.104;11.396;2023-04-25T09:29:58;99036.41;;;6.67;100.00
48563;BME280;34981;49.104;11.396;2023-04-25T09:32:32;99061.13;;;6.85;100.00
48563;BME280;34981;49.104;11.396;2023-04-25T09:35:00;99057.47;;;6.78;100.00
48563;BME280;34981;49.104;11.396;2023-04-25T09:37:29;99086.19;;;6.84;100.00
48563;BME280;34981;49.104;11.396;2023-04-25T09:40:32;99095.16;;;7.16;100.00
48563;BME280;34981;49.104;11.396;2023-04-25T09:43:20;99169.31;;;7.54;100.00
48563;BME280;34981;49.104;11.396;2023-04-25T09:45:49;99245.75;;;8.20;100.00
48563;BME280;34981;49.104;11.396;2023-04-25T09:48:19;99237.72;;;8.20;100.00
48563;BME280;34981;49.104;11.396;2023-04-25T09:53:37;99291.47;;;8.96;100.00
48563;BME280;34981;49.104;11.396;2023-04-25T09:56:19;99254.25;;;8.93;100.00
48563;BME280;34981;49.104;11.396;2023-04-25T09:58:48;99270.47;;;9.00;100.00
48563;BME280;34981;49.104;11.396;2023-04-25T10:01:17;99238.09;;;9.02;100.00
48563;BME280;34981;49.104;11.396;2023-04-25T10:04:01;99248.88;;;9.39;100.00
48563;BME280;34981;49.104;11.396;2023-04-25T10:06:40;99183.63;;;9.16;100.00
48563;BME280;34981;49.104;11.396;2023-04-25T10:09:08;99189.88;;;9.31;100.00
48563;BME280;34981;49.104;11.396;2023-04-25T10:11:36;99194.16;;;9.55;100.00
48563;BME280;34981;49.104;11.396;2023-04-25T10:14:03;99182.69;;;9.61;100.00
48563;BME280;34981;49.104;11.396;2023-04-25T10:16:32;99168.34;;;9.68;100.00
48563;BME280;34981;49.104;11.396;2023-04-25T10:18:59;99135.63;;;9.65;100.00
48563;BME280;34981;49.104;11.396;2023-04-25T10:21:27;99114.25;;;9.57;100.00
48563;BME280;34981;49.104;11.396;2023-04-25T10:23:55;99124.16;;;9.71;100.00
48563;BME280;34981;49.104;11.396;2023-04-25T10:26:22;99128.03;;;9.83;100.00
48563;BME280;34981;49.104;11.396;2023-04-25T10:29:00;99081.53;;;9.68;100.00
48563;BME280;34981;49.104;11.396;2023-04-25T10:31:29;99027.56;;;9.63;100.00
48563;BME280;34981;49.104;11.396;2023-04-25T10:33:58;98995.00;;;9.36;100.00
48563;BME280;34981;49.104;11.396;2023-04-25T10:36:25;98969.44;;;9.41;100.00
48563;BME280;34981;49.104;11.396;2023-04-25T10:38:54;98932.91;;;9.25;100.00
48563;BME280;34981;49.104;11.396;2023-04-25T10:41:21;98933.63;;;9.33;100.00
48563;BME280;34981;49.104;11.396;2023-04-25T10:43:49;98925.25;;;9.43;100.00
48563;BME280;34981;49.104;11.396;2023-04-25T10:46:26;98900.19;;;9.36;100.00
48563;BME280;34981;49.104;11.396;2023-04-25T10:48:54;98881.97;;;9.31;100.00
48563;BME280;34981;49.104;11.396;2023-04-25T10:51:22;98863.91;;;9.40;100.00
48563;BME280;34981;49.104;11.396;2023-04-25T10:54:03;98834.25;;;9.48;100.00
48563;BME280;34981;49.104;11.396;2023-04-25T10:56:31;98811.22;;;9.60;100.00
48563;BME280;34981;49.104;11.396;2023-04-25T10:59:17;98865.91;;;10.02;100.00
48563;BME280;34981;49.104;11.396;2023-04-25T11:01:46;98808.88;;;10.06;100.00
48563;BME280;34981;49.104;11.396;2023-04-25T11:04:20;98795.03;;;10.09;100.00
48563;BME280;34981;49.104;11.396;2023-04-25T11:09:27;98782.81;;;10.35;100.00
48563;BME280;34981;49.104;11.396;2023-04-25T11:11:55;98789.09;;;10.48;100.00
48563;BME280;34981;49.104;11.396;2023-04-25T11:14:22;98730.75;;;10.49;100.00
48563;BME280;34981;49.104;11.396;2023-04-25T11:16:54;98668.88;;;10.42;100.00
48563;BME280;34981;49.104;11.396;2023-04-25T11:19:25;98607.63;;;10.38;100.00
48563;BME280;34981;49.104;11.396;2023-04-25T11:21:56;98557.16;;;10.27;100.00
48563;BME280;34981;49.104;11.396;2023-04-25T11:24:27;98473.75;;;10.00;100.00
48563;BME280;34981;49.104;11.396;2023-04-25T11:26:55;98418.75;;;9.96;100.00
48563;BME280;34981;49.104;11.396;2023-04-25T11:29:22;98392.91;;;10.08;100.00
48563;BME280;34981;49.104;11.396;2023-04-25T11:31:50;98350.16;;;10.07;100.00
48563;BME280;34981;49.104;11.396;2023-04-25T11:34:17;98382.59;;;10.32;100.00
48563;BME280;34981;49.104;11.396;2023-04-25T11:36:45;98403.88;;;10.66;100.00
48563;BME280;34981;49.104;11.396;2023-04-25T11:39:12;98331.03;;;10.61;100.00
48563;BME280;34981;49.104;11.396;2023-04-25T11:41:40;98290.53;;;10.49;100.00
48563;BME280;34981;49.104;11.396;2023-04-25T11:44:08;98222.94;;;10.33;100.00
48563;BME280;34981;49.104;11.396;2023-04-25T11:46:35;98178.13;;;10.27;100.00
48563;BME280;34981;49.104;11.396;2023-04-25T11:49:03;98137.53;;;10.35;100.00
48563;BME280;34981;49.104;11.396;2023-04-25T11:51:37;98069.81;;;10.20;100.00
48563;BME280;34981;49.104;11.396;2023-04-25T11:54:05;98041.63;;;10.29;100.00
48563;BME280;34981;49.104;11.396;2023-04-25T11:56:32;98071.63;;;10.57;100.00
48563;BME280;34981;49.104;11.396;2023-04-25T11:59:01;98027.72;;;10.63;100.00
48563;BME280;34981;49.104;11.396;2023-04-25T12:04:09;97836.50;;;10.03;100.00
48563;BME280;34981;49.104;11.396;2023-04-25T12:06:37;97822.50;;;9.95;100.00
48563;BME280;34981;49.104;11.396;2023-04-25T12:09:08;97741.50;;;9.73;100.00
48563;BME280;34981;49.104;11.396;2023-04-25T12:11:42;97695.56;;;9.63;100.00
48563;BME280;34981;49.104;11.396;2023-04-25T12:14:10;97677.63;;;9.57;100.00
48563;BME280;34981;49.104;11.396;2023-04-25T12:16:44;97614.41;;;9.36;100.00
48563;BME280;34981;49.104;11.396;2023-04-25T12:19:15;97592.72;;;9.37;100.00
48563;BME280;34981;49.104;11.396;2023-04-25T12:21:43;97585.97;;;9.53;100.00
48563;BME280;34981;49.104;11.396;2023-04-25T12:24:17;97559.94;;;9.54;100.00
48563;BME280;34981;49.104;11.396;2023-04-25T12:26:49;97562.78;;;9.59;100.00
48563;BME280;34981;49.104;11.396;2023-04-25T12:29:21;97524.38;;;9.58;100.00
48563;BME280;34981;49.104;11.396;2023-04-25T12:31:49;97507.44;;;9.58;100.00
48563;BME280;34981;49.104;11.396;2023-04-25T12:34:17;97497.84;;;9.80;100.00
48563;BME280;34981;49.104;11.396;2023-04-25T12:36:44;97510.66;;;9.96;100.00
48563;BME280;34981;49.104;11.396;2023-04-25T12:39:17;97491.72;;;9.91;100.00
48563;BME280;34981;49.104;11.396;2023-04-25T12:41:46;97398.22;;;10.00;100.00
48563;BME280;34981;49.104;11.396;2023-04-25T12:44:13;97353.59;;;9.99;100.00
48563;BME280;34981;49.104;11.396;2023-04-25T12:46:41;97357.66;;;10.01;100.00
48563;BME280;34981;49.104;11.396;2023-04-25T12:49:08;97281.28;;;9.97;100.00
48563;BME280;34981;49.104;11.396;2023-04-25T12:51:45;97253.72;;;10.13;100.00
48563;BME280;34981;49.104;11.396;2023-04-25T12:54:12;97238.31;;;10.21;100.00
48563;BME280;34981;49.104;11.396;2023-04-25T12:56:41;97172.06;;;10.14;100.00
48563;BME280;34981;49.104;11.396;2023-04-25T12:59:08;97099.53;;;10.14;100.00
48563;BME280;34981;49.104;11.396;2023-04-25T13:01:36;97060.50;;;10.12;100.00
48563;BME280;34981;49.104;11.396;2023-04-25T13:04:04;97043.31;;;10.13;100.00
48563;BME280;34981;49.104;11.396;2023-04-25T13:06:32;97039.16;;;10.34;100.00
48563;BME280;34981;49.104;11.396;2023-04-25T13:08:59;96968.56;;;10.10;100.00
48563;BME280;34981;49.104;11.396;2023-04-25T13:11:26;96954.16;;;9.99;100.00
48563;BME280;34981;49.104;11.396;2023-04-25T13:13:53;96925.16;;;10.01;100.00
48563;BME280;34981;49.104;11.396;2023-04-25T13:16:20;96845.00;;;9.93;100.00
48563;BME280;34981;49.104;11.396;2023-04-25T13:18:48;96824.47;;;10.04;100.00
48563;BME280;34981;49.104;11.396;2023-04-25T13:21:15;96820.09;;;10.14;100.00
48563;BME280;34981;49.104;11.396;2023-04-25T13:23:42;96769.94;;;10.03;100.00